Time;durP1;ratioP1;P1;durP2;ratioP2;P2;SDS_P1;SDS_P2;PMS_P1;PMS_P2;Temp;Humidity;BMP_temperature;BMP_pressure;BME280_temperature;BME280_humidity;BME280_pressure;Samples;Min_cycle;Max_cycle;Signal;HPM_P1;HPM_P2
2022/02/05 00:02:13;;;;;;;5.63;1.20;;;3.80;99.90;;;;;;5116405;28;20427;-84
2022/02/05 00:04:38;;;;;;;6.50;1.40;;;3.80;99.90;;;;;;5114987;28;20210;-83
2022/02/05 00:07:06;;;;;;;2.50;0.90;;;3.80;99.90;;;;;;5107283;28;20458;-86
2022/02/05 00:42:24;;;;;;;3.90;1.33;;;3.40;99.90;;;;;;5074932;28;20536;-86
2022/02/05 00:44:50;;;;;;;4.27;0.50;;;3.40;99.90;;;;;;5094900;28;20411;-87
2022/02/05 00:47:16;;;;;;;4.47;0.83;;;3.40;99.90;;;;;;5095036;28;20422;-85
2022/02/05 00:49:42;;;;;;;3.80;1.27;;;3.50;99.90;;;;;;5094615;28;20244;-85
2022/02/05 00:52:11;;;;;;;1.57;0.57;;;3.40;99.90;;;;;;5094627;28;20861;-87
2022/02/05 00:54:39;;;;;;;7.33;1.60;;;3.40;99.90;;;;;;5094643;28;20180;-85
2022/02/05 00:59:33;;;;;;;7.17;1.10;;;3.30;99.90;;;;;;5094174;28;20415;-82
2022/02/05 01:01:59;;;;;;;5.73;0.80;;;3.40;99.90;;;;;;5094466;28;20248;-82
2022/02/05 01:04:24;;;;;;;1.17;0.63;;;3.50;99.90;;;;;;5094322;28;20454;-87
2022/02/05 01:06:50;;;;;;;4.17;1.07;;;3.60;99.90;;;;;;5094419;28;20222;-85
2022/02/05 01:09:22;;;;;;;6.53;0.83;;;3.70;99.90;;;;;;5093982;28;20242;-83
2022/02/05 01:11:48;;;;;;;1.60;0.40;;;3.70;99.90;;;;;;5094235;28;20163;-82
2022/02/05 01:14:18;;;;;;;1.80;0.47;;;3.80;99.90;;;;;;5093918;28;20411;-86
2022/02/05 01:16:55;;;;;;;4.60;1.10;;;3.80;99.90;;;;;;5094182;28;20446;-83
2022/02/05 01:22:07;;;;;;;3.23;1.07;;;3.80;99.90;;;;;;5094003;28;20422;-86
2022/02/05 01:24:34;;;;;;;4.40;0.40;;;3.80;99.90;;;;;;5094124;28;20411;-88
2022/02/05 01:27:17;;;;;;;6.57;0.43;;;3.70;99.90;;;;;;5093748;28;20744;-83
2022/02/05 01:32:17;;;;;;;5.10;0.70;;;3.70;99.90;;;;;;5107238;28;20409;-85
2022/02/05 01:34:47;;;;;;;2.47;0.33;;;3.70;99.90;;;;;;5114412;28;20894;-84
2022/02/05 01:50:55;;;;;;;3.23;0.40;;;3.30;99.90;;;;;;5114336;28;20905;-85
2022/02/05 01:58:56;;;;;;;0.77;0.37;;;3.40;99.90;;;;;;5162227;22;20538;-84
2022/02/05 02:11:55;;;;;;;1.50;0.70;;;3.50;99.90;;;;;;5113838;28;20236;-84
2022/02/05 02:22:29;;;;;;;3.63;0.90;;;3.60;99.90;;;;;;5113008;28;20813;-85
2022/02/05 02:25:04;;;;;;;8.70;1.20;;;3.70;99.90;;;;;;5095348;28;20785;-86
2022/02/05 02:27:46;;;;;;;2.27;0.60;;;3.70;99.90;;;;;;5113628;28;20413;-88
2022/02/05 02:30:19;;;;;;;5.97;1.13;;;3.70;99.90;;;;;;5094368;28;20477;-86
2022/02/05 02:32:50;;;;;;;2.63;0.90;;;3.70;99.90;;;;;;5095574;28;20457;-84
2022/02/05 02:35:21;;;;;;;1.97;0.93;;;3.70;99.90;;;;;;5095896;28;20465;-86
2022/02/05 02:37:54;;;;;;;3.63;1.43;;;3.70;99.90;;;;;;5113326;28;20456;-87
2022/02/05 02:40:29;;;;;;;5.40;1.53;;;3.80;99.90;;;;;;5095741;28;20528;-87
2022/02/05 02:43:03;;;;;;;1.80;1.37;;;3.60;99.90;;;;;;5095396;28;20825;-85
2022/02/05 02:45:28;;;;;;;4.50;2.07;;;3.70;99.90;;;;;;5113461;28;20428;-87
2022/02/05 02:47:54;;;;;;;2.33;1.20;;;3.70;99.90;;;;;;5113407;28;20409;-83
2022/02/05 02:56:26;;;;;;;2.60;1.67;;;3.60;99.90;;;;;;5113681;28;20246;-88
2022/02/05 02:59:22;;;;;;;4.73;1.20;;;3.50;99.90;;;;;;5050149;28;20541;-85
2022/02/05 03:01:48;;;;;;;2.73;2.07;;;3.40;99.90;;;;;;5048977;28;20417;-83
2022/02/05 03:04:14;;;;;;;3.70;2.00;;;3.30;99.90;;;;;;5084531;28;20424;-86
2022/02/05 03:06:39;;;;;;;4.20;2.80;;;3.30;99.90;;;;;;5095024;28;20608;-84
2022/02/05 03:09:05;;;;;;;5.27;2.50;;;3.30;99.90;;;;;;5112828;28;20474;-85
2022/02/05 03:11:30;;;;;;;3.90;3.50;;;3.40;99.90;;;;;;5113626;28;20168;-86
2022/02/05 03:13:56;;;;;;;5.80;3.90;;;3.50;99.90;;;;;;5095090;28;20252;-85
2022/02/05 03:16:24;;;;;;;4.13;1.90;;;3.60;99.90;;;;;;5118622;28;20222;-84
2022/02/05 03:21:21;;;;;;;9.60;1.83;;;4.40;99.90;;;;;;5115619;28;20413;-85
2022/02/05 03:23:47;;;;;;;4.50;1.23;;;3.50;99.90;;;;;;5115237;28;20409;-85
2022/02/05 03:26:12;;;;;;;2.50;1.67;;;3.40;99.90;;;;;;5096568;28;20175;-88
2022/02/05 03:28:38;;;;;;;2.37;0.80;;;3.30;99.90;;;;;;5113321;28;20233;-83
2022/02/05 03:31:04;;;;;;;4.50;0.70;;;3.30;99.90;;;;;;5113252;28;20183;-84
2022/02/05 03:33:29;;;;;;;1.47;0.60;;;3.30;99.90;;;;;;5113226;28;20168;-83
2022/02/05 03:35:55;;;;;;;5.93;0.80;;;3.30;99.90;;;;;;5099160;28;20226;-83
2022/02/05 03:38:20;;;;;;;0.97;0.60;;;3.20;99.90;;;;;;5116728;28;20174;-88
2022/02/05 03:40:46;;;;;;;4.80;0.47;;;3.20;99.90;;;;;;5117246;28;20177;-84
2022/02/05 03:43:11;;;;;;;6.60;1.40;;;3.10;99.90;;;;;;5098384;28;20624;-87
2022/02/05 03:45:37;;;;;;;2.70;0.57;;;3.20;99.90;;;;;;5116966;28;20177;-84
2022/02/05 03:48:02;;;;;;;4.33;1.23;;;3.20;99.90;;;;;;5098645;28;20204;-86
2022/02/05 03:50:29;;;;;;;2.00;0.33;;;3.20;99.90;;;;;;5116979;28;20175;-85
2022/02/05 03:52:55;;;;;;;1.57;0.40;;;3.20;99.90;;;;;;5116390;28;20630;-84
2022/02/05 03:55:20;;;;;;;2.07;0.20;;;3.20;99.90;;;;;;5098250;28;20417;-88
2022/02/05 03:57:47;;;;;;;1.20;0.40;;;3.20;99.90;;;;;;5116589;28;20165;-83
2022/02/05 04:00:13;;;;;;;0.60;0.33;;;3.10;99.90;;;;;;5098376;28;20680;-83
2022/02/05 04:02:39;;;;;;;2.30;0.30;;;3.00;99.90;;;;;;5116552;28;20462;-86
2022/02/05 04:05:06;;;;;;;2.67;0.30;;;2.70;99.90;;;;;;5116453;28;20413;-84
2022/02/05 04:07:39;;;;;;;1.83;0.47;;;2.60;99.90;;;;;;5115896;28;20168;-84
2022/02/05 04:10:15;;;;;;;0.43;0.30;;;2.50;99.90;;;;;;5116125;28;20889;-83
2022/02/05 04:18:10;;;;;;;0.90;0.60;;;2.40;99.90;;;;;;5116223;28;20973;-83
2022/02/05 04:20:37;;;;;;;0.90;0.73;;;2.40;99.90;;;;;;5097880;28;20409;-83
2022/02/05 04:23:06;;;;;;;2.00;0.33;;;2.30;99.90;;;;;;5097473;28;20176;-82
2022/02/05 04:25:32;;;;;;;0.73;0.33;;;2.30;99.90;;;;;;5116000;28;20452;-82
2022/02/05 04:28:00;;;;;;;0.43;0.30;;;2.30;99.90;;;;;;5115902;28;20865;-83
2022/02/05 04:30:29;;;;;;;1.83;0.43;;;2.20;99.90;;;;;;5115801;28;20167;-83
2022/02/05 04:32:54;;;;;;;0.80;0.23;;;2.10;99.90;;;;;;5115864;28;20410;-82
2022/02/05 04:35:20;;;;;;;0.80;0.40;;;2.10;99.90;;;;;;5115771;28;20425;-83
2022/02/05 04:37:49;;;;;;;3.20;0.30;;;2.00;99.90;;;;;;5115427;28;20171;-82
2022/02/05 04:40:30;;;;;;;1.57;0.70;;;1.90;99.90;;;;;;5115784;28;20523;-82
2022/02/05 04:46:09;;;;;;;3.03;0.27;;;1.90;99.90;;;;;;5114848;28;20450;-82
2022/02/05 04:48:51;;;;;;;1.27;0.23;;;1.90;99.90;;;;;;5115275;28;20464;-83
2022/02/05 04:54:15;;;;;;;1.53;0.20;;;1.80;99.90;;;;;;5115357;28;20430;-84
2022/02/05 04:59:43;;;;;;;4.33;0.40;;;1.70;99.90;;;;;;5115251;28;20895;-84
2022/02/05 05:04:49;;;;;;;5.73;0.50;;;1.80;99.90;;;;;;5115326;28;20451;-84
2022/02/05 05:20:32;;;;;;;8.73;0.80;;;2.00;99.90;;;;;;5115021;28;20991;-85
2022/02/05 05:22:58;;;;;;;2.23;0.47;;;2.00;99.90;;;;;;5096358;28;20425;-85
2022/02/05 05:25:23;;;;;;;7.30;1.43;;;2.00;99.90;;;;;;5113205;28;20675;-84
2022/02/05 05:27:49;;;;;;;1.37;0.40;;;2.00;99.90;;;;;;5095132;28;20199;-83
2022/02/05 05:30:14;;;;;;;3.63;0.77;;;2.00;99.90;;;;;;5113544;28;20242;-83
2022/02/05 05:32:40;;;;;;;2.77;0.60;;;2.00;99.90;;;;;;5096315;28;20168;-84
2022/02/05 05:35:07;;;;;;;4.03;0.30;;;2.10;99.90;;;;;;5114593;28;20228;-83
2022/02/05 05:37:32;;;;;;;3.27;0.20;;;2.10;99.90;;;;;;5114205;28;20461;-83
2022/02/05 05:39:58;;;;;;;3.80;0.50;;;2.10;99.90;;;;;;5096257;28;20429;-83
2022/02/05 05:42:28;;;;;;;1.27;0.70;;;2.10;99.90;;;;;;5114492;28;20705;-83
2022/02/05 05:47:48;;;;;;;2.20;0.70;;;2.10;99.90;;;;;;5114415;28;20470;-83
2022/02/05 05:50:47;;;;;;;2.00;0.40;;;2.10;99.90;;;;;;5095982;28;20860;-83
2022/02/05 05:52:59;;;;;;;1.37;0.30;;;2.10;99.90;;;;;;5113723;28;20516;-83
2022/02/05 05:55:25;;;;;;;2.97;0.60;;;2.10;99.90;;;;;;5114225;28;20504;-83
2022/02/05 05:57:50;;;;;;;2.80;0.37;;;2.10;99.90;;;;;;5112966;28;20174;-83
2022/02/05 06:00:16;;;;;;;5.40;0.77;;;2.10;99.90;;;;;;5095760;28;20749;-83
2022/02/05 06:02:41;;;;;;;1.60;0.30;;;2.10;99.90;;;;;;5095813;28;20600;-83
2022/02/05 06:05:07;;;;;;;3.50;1.00;;;2.00;99.90;;;;;;5114023;28;20175;-83
2022/02/05 06:07:33;;;;;;;2.50;0.63;;;2.00;99.90;;;;;;5094787;28;20236;-83
2022/02/05 06:09:58;;;;;;;1.53;0.60;;;2.00;99.90;;;;;;5095537;28;20476;-84
2022/02/05 06:12:24;;;;;;;4.47;0.50;;;2.00;99.90;;;;;;5113973;28;20160;-83
2022/02/05 06:14:49;;;;;;;3.63;1.17;;;2.10;99.90;;;;;;5113658;28;20184;-84
2022/02/05 06:17:22;;;;;;;5.43;0.70;;;2.10;99.90;;;;;;5113821;28;20190;-84
2022/02/05 06:19:48;;;;;;;1.70;0.30;;;2.20;99.90;;;;;;5113777;28;20167;-85
2022/02/05 06:22:13;;;;;;;5.27;0.70;;;2.10;99.90;;;;;;5113437;28;20984;-83
2022/02/05 06:24:39;;;;;;;0.60;0.30;;;2.10;99.90;;;;;;5095530;28;20180;-83
2022/02/05 06:27:05;;;;;;;2.27;0.70;;;2.20;99.90;;;;;;5113731;28;20183;-83
2022/02/05 06:29:31;;;;;;;2.23;0.43;;;2.20;99.90;;;;;;5113568;28;20207;-83
2022/02/05 06:31:57;;;;;;;5.03;0.57;;;2.30;99.90;;;;;;5113591;28;20416;-84
2022/02/05 06:34:23;;;;;;;3.40;0.70;;;2.30;99.90;;;;;;5095328;28;20433;-84
2022/02/05 06:36:48;;;;;;;5.60;1.33;;;2.30;99.90;;;;;;5113332;28;20206;-83
2022/02/05 06:39:17;;;;;;;10.27;1.67;;;2.40;99.90;;;;;;5113197;28;20958;-83
2022/02/05 06:41:42;;;;;;;4.60;1.30;;;2.40;99.90;;;;;;5113440;28;20641;-83
2022/02/05 06:44:08;;;;;;;0.80;0.30;;;2.30;99.90;;;;;;5113446;28;20415;-83
2022/02/05 06:46:33;;;;;;;4.60;0.73;;;2.20;99.90;;;;;;5095060;28;20172;-83
2022/02/05 06:48:59;;;;;;;4.57;1.03;;;2.20;99.90;;;;;;5113366;28;20254;-84
2022/02/05 06:51:24;;;;;;;5.37;0.83;;;2.20;99.90;;;;;;5094874;28;20224;-84
2022/02/05 06:53:50;;;;;;;3.63;1.00;;;2.20;99.90;;;;;;5113427;28;20635;-83
2022/02/05 06:56:15;;;;;;;5.40;1.10;;;2.20;99.90;;;;;;5095099;28;20574;-84
2022/02/05 06:58:41;;;;;;;1.37;0.20;;;2.20;99.90;;;;;;5112658;28;20659;-85
2022/02/05 07:01:06;;;;;;;1.80;0.50;;;2.20;99.90;;;;;;5113285;28;20171;-85
2022/02/05 07:03:32;;;;;;;2.77;0.30;;;2.30;99.90;;;;;;5113273;28;20162;-86
2022/02/05 07:05:57;;;;;;;4.80;0.73;;;2.30;99.90;;;;;;5095001;28;20658;-85
2022/02/05 07:08:23;;;;;;;3.80;0.50;;;2.20;99.90;;;;;;5094380;28;20199;-85
2022/02/05 07:10:50;;;;;;;8.17;1.50;;;2.20;99.90;;;;;;5117252;28;20219;-86
2022/02/05 07:13:18;;;;;;;7.30;0.80;;;2.20;99.90;;;;;;5099058;28;20174;-84
2022/02/05 07:15:57;;;;;;;6.87;1.80;;;2.20;99.90;;;;;;5099000;28;20417;-86
2022/02/05 07:18:34;;;;;;;3.33;0.37;;;2.20;99.90;;;;;;5117518;28;20424;-85
2022/02/05 07:21:09;;;;;;;2.37;0.40;;;2.30;99.90;;;;;;5117178;28;20412;-83
2022/02/05 07:31:34;;;;;;;1.60;0.57;;;2.70;99.90;;;;;;5117444;28;20459;-83
2022/02/05 07:34:00;;;;;;;11.53;0.93;;;2.90;99.90;;;;;;5117002;28;20413;-82
2022/02/05 07:36:26;;;;;;;2.20;0.63;;;2.90;99.90;;;;;;5116724;28;20175;-83
2022/02/05 07:38:52;;;;;;;3.87;0.93;;;2.90;99.90;;;;;;5116824;28;20473;-82
2022/02/05 07:41:17;;;;;;;8.30;1.17;;;2.80;99.90;;;;;;5098525;28;20417;-84
2022/02/05 07:43:43;;;;;;;13.47;1.30;;;2.70;99.90;;;;;;5116882;28;20654;-83
2022/02/05 07:46:12;;;;;;;5.73;1.00;;;2.70;99.90;;;;;;5116711;28;20236;-83
2022/02/05 07:48:38;;;;;;;1.53;0.30;;;2.80;99.90;;;;;;5116737;28;20238;-87
2022/02/05 07:51:04;;;;;;;4.63;0.70;;;2.90;99.90;;;;;;5116466;28;20782;-87
2022/02/05 07:53:31;;;;;;;9.63;1.73;;;3.00;99.90;;;;;;5116547;28;20401;-85
2022/02/05 07:55:58;;;;;;;3.07;0.63;;;3.20;99.90;;;;;;5098107;28;20425;-84
2022/02/05 07:58:23;;;;;;;2.73;0.63;;;3.50;99.90;;;;;;5116266;28;20927;-85
2022/02/05 08:00:50;;;;;;;2.80;0.50;;;4.00;99.90;;;;;;5116308;28;20443;-88
2022/02/05 08:03:16;;;;;;;7.43;1.00;;;4.60;99.90;;;;;;5116538;28;20462;-82
2022/02/05 08:05:41;;;;;;;4.90;0.70;;;5.00;99.90;;;;;;5115992;28;20448;-84
2022/02/05 08:08:11;;;;;;;4.83;1.30;;;5.20;99.90;;;;;;5097561;28;20533;-84
2022/02/05 08:10:46;;;;;;;5.40;0.40;;;5.30;99.90;;;;;;5116026;28;20163;-85
2022/02/05 08:13:14;;;;;;;3.77;0.93;;;5.40;99.90;;;;;;5115575;28;20503;-85
2022/02/05 08:15:40;;;;;;;2.53;0.37;;;5.60;99.90;;;;;;5115642;28;20464;-86
2022/02/05 08:18:06;;;;;;;3.53;0.57;;;5.50;99.90;;;;;;5115938;28;20410;-85
2022/02/05 08:20:32;;;;;;;3.20;0.50;;;5.60;99.90;;;;;;5096039;28;20403;-84
2022/02/05 08:22:57;;;;;;;5.37;1.27;;;5.70;99.90;;;;;;5096268;28;20782;-83
2022/02/05 08:25:24;;;;;;;6.53;0.87;;;5.70;99.90;;;;;;5114717;28;20251;-84
2022/02/05 08:27:50;;;;;;;5.70;1.20;;;6.20;99.90;;;;;;5097593;28;20177;-83
2022/02/05 08:30:15;;;;;;;10.97;1.63;;;6.10;99.90;;;;;;5115880;28;20466;-84
2022/02/05 08:32:44;;;;;;;3.60;0.47;;;5.60;99.90;;;;;;5116394;28;20161;-84
2022/02/05 08:35:09;;;;;;;6.03;1.67;;;5.90;99.90;;;;;;5115838;28;20195;-84
2022/02/05 08:37:45;;;;;;;7.70;0.80;;;6.80;99.90;;;;;;5107626;28;20425;-84
2022/02/05 08:40:11;;;;;;;8.67;1.50;;;7.30;99.90;;;;;;5107306;28;20181;-84
2022/02/05 08:42:36;;;;;;;3.60;0.67;;;7.40;99.90;;;;;;5115052;28;20409;-84
2022/02/05 08:45:02;;;;;;;8.03;1.20;;;7.40;99.90;;;;;;5115370;28;20405;-84
2022/02/05 08:47:30;;;;;;;4.50;0.83;;;8.10;99.90;;;;;;5115313;28;20205;-85
2022/02/05 08:49:58;;;;;;;9.07;1.40;;;8.80;99.90;;;;;;5115066;28;20505;-84
2022/02/05 08:52:24;;;;;;;8.87;1.27;;;8.50;99.90;;;;;;5114816;28;20501;-83
2022/02/05 08:54:49;;;;;;;4.40;1.20;;;9.30;99.90;;;;;;5115191;28;20410;-84
2022/02/05 08:57:15;;;;;;;7.97;1.13;;;9.40;99.90;;;;;;5096546;28;20411;-84
2022/02/05 08:59:58;;;;;;;7.53;1.83;;;8.60;99.90;;;;;;5114734;28;20224;-84
2022/02/05 09:02:36;;;;;;;7.60;1.60;;;9.00;99.90;;;;;;5114580;28;20407;-85
2022/02/05 09:07:31;;;;;;;6.60;0.87;;;8.90;99.90;;;;;;5114586;28;20417;-86
2022/02/05 09:10:24;;;;;;;6.80;1.50;;;9.70;99.90;;;;;;5115339;28;20472;-84
2022/02/05 09:13:11;;;;;;;3.03;0.43;;;9.60;99.90;;;;;;5115188;28;20209;-84
2022/02/05 09:15:37;;;;;;;5.67;1.33;;;10.00;99.90;;;;;;5114998;28;20411;-87
2022/02/05 09:18:03;;;;;;;8.30;1.67;;;10.50;99.90;;;;;;5114854;28;20416;-85
2022/02/05 09:20:29;;;;;;;4.10;0.47;;;10.40;99.90;;;;;;5114236;28;20425;-84
2022/02/05 09:22:57;;;;;;;6.03;0.80;;;10.40;99.90;;;;;;5114298;28;20405;-85
2022/02/05 09:25:23;;;;;;;6.47;0.90;;;10.60;99.90;;;;;;5095627;28;20176;-85
2022/02/05 09:27:50;;;;;;;7.23;1.20;;;10.20;99.90;;;;;;5114410;28;20885;-85
2022/02/05 09:30:17;;;;;;;7.60;1.57;;;10.10;99.90;;;;;;5096090;28;20215;-85
2022/02/05 09:32:43;;;;;;;5.47;0.93;;;9.90;99.90;;;;;;5095967;28;20422;-85
2022/02/05 09:35:10;;;;;;;9.33;0.90;;;10.40;99.90;;;;;;5096195;28;20420;-85
2022/02/05 09:37:36;;;;;;;7.40;1.07;;;10.50;99.90;;;;;;5113544;28;20416;-84
2022/02/05 09:40:03;;;;;;;2.73;0.50;;;10.80;99.90;;;;;;5096038;28;20872;-85
2022/02/05 09:42:41;;;;;;;2.63;0.77;;;11.80;1.00;;;;;;5096187;28;20260;-87
2022/02/05 09:45:09;;;;;;;6.00;1.00;;;10.30;1.00;;;;;;5114494;28;20410;-87
2022/02/05 09:47:35;;;;;;;4.20;1.13;;;8.50;99.90;;;;;;5114276;28;20400;-86
2022/02/05 09:50:01;;;;;;;3.80;1.07;;;8.20;99.90;;;;;;5114153;28;20546;-86
2022/02/05 09:52:27;;;;;;;6.93;0.93;;;8.60;99.90;;;;;;5095462;28;20559;-83
2022/02/05 09:54:53;;;;;;;7.33;0.60;;;8.30;99.90;;;;;;5112800;28;20893;-83
2022/02/05 09:57:19;;;;;;;4.90;0.97;;;8.40;99.90;;;;;;5112880;28;20468;-86
2022/02/05 09:59:55;;;;;;;7.93;1.00;;;9.00;99.90;;;;;;5112411;28;20456;-86
2022/02/05 10:02:31;;;;;;;7.40;1.43;;;9.90;99.90;;;;;;5093768;28;20180;-84
2022/02/05 10:05:09;;;;;;;11.10;2.50;;;8.70;99.90;;;;;;5094591;28;20479;-85
2022/02/05 10:07:54;;;;;;;10.43;1.53;;;8.60;99.90;;;;;;5111320;28;20500;-85
2022/02/05 10:10:20;;;;;;;4.93;1.37;;;10.90;99.90;;;;;;5095344;28;20559;-84
2022/02/05 10:13:09;;;;;;;7.30;0.83;;;11.20;99.90;;;;;;5113625;28;20439;-87
2022/02/05 10:15:36;;;;;;;12.27;2.17;;;10.30;99.90;;;;;;5095581;28;20414;-91
2022/02/05 10:18:03;;;;;;;10.23;1.80;;;10.70;99.90;;;;;;5095821;28;20849;-90
2022/02/05 10:20:29;;;;;;;5.77;0.80;;;10.40;99.90;;;;;;5112659;28;20490;-86
2022/02/05 10:22:54;;;;;;;8.73;1.67;;;9.40;99.90;;;;;;5112311;28;20916;-86
2022/02/05 10:25:24;;;;;;;5.27;1.53;;;9.50;99.90;;;;;;5112620;28;20526;-87
2022/02/05 10:27:51;;;;;;;6.77;1.00;;;8.70;99.90;;;;;;5112235;28;20533;-86
2022/02/05 10:30:24;;;;;;;6.87;1.17;;;8.60;99.90;;;;;;5112416;28;20825;-87
2022/02/05 10:33:22;;;;;;;8.40;1.80;;;8.40;99.90;;;;;;5112569;28;20507;-84
2022/02/05 10:43:55;;;;;;;8.67;0.83;;;8.30;99.90;;;;;;5114695;28;20438;-88
2022/02/05 10:46:21;;;;;;;4.03;0.70;;;8.20;99.90;;;;;;5114057;28;21147;-89
2022/02/05 10:48:47;;;;;;;5.97;1.20;;;7.80;99.90;;;;;;5114456;28;20223;-89
2022/02/05 10:51:13;;;;;;;7.60;1.30;;;7.80;99.90;;;;;;5095687;28;20455;-87
2022/02/05 10:53:48;;;;;;;10.70;1.10;;;10.10;99.90;;;;;;5095793;28;20218;-92
2022/02/05 10:56:30;;;;;;;5.83;0.77;;;9.30;99.90;;;;;;5097468;28;20418;-88
2022/02/05 11:07:13;;;;;;;9.43;1.80;;;9.40;99.90;;;;;;5113115;28;20468;-90
2022/02/05 11:09:46;;;;;;;10.27;1.10;;;8.20;99.90;;;;;;5112612;28;20465;-85
2022/02/05 11:19:53;;;;;;;8.77;2.33;;;10.90;99.90;;;;;;5112194;28;20423;-86
2022/02/05 11:22:22;;;;;;;6.70;1.60;;;10.80;99.90;;;;;;5093654;28;20973;-87
2022/02/05 11:24:50;;;;;;;8.10;1.43;;;9.90;99.90;;;;;;5112133;28;20973;-87
2022/02/05 11:27:16;;;;;;;5.40;0.77;;;10.40;99.90;;;;;;5112883;28;20416;-87
2022/02/05 11:29:45;;;;;;;13.33;1.73;;;10.90;99.90;;;;;;5112678;28;20483;-87
2022/02/05 11:32:29;;;;;;;4.93;0.80;;;10.60;99.90;;;;;;5112305;28;20444;-85
2022/02/05 11:35:10;;;;;;;4.47;0.97;;;11.20;99.90;;;;;;5112901;28;20409;-84
2022/02/05 11:38:01;;;;;;;6.23;1.30;;;11.40;99.90;;;;;;5093047;28;20919;-88
2022/02/05 11:40:48;;;;;;;4.70;1.40;;;11.00;99.90;;;;;;5112802;28;20441;-89
2022/02/05 11:43:14;;;;;;;7.17;1.10;;;10.80;99.90;;;;;;5094872;28;20409;-88
2022/02/05 11:45:39;;;;;;;3.40;1.07;;;9.40;99.90;;;;;;5113329;28;20763;-85
2022/02/05 11:48:43;;;;;;;11.23;2.27;;;9.60;99.90;;;;;;5113488;28;20634;-88
2022/02/05 11:51:14;;;;;;;7.80;1.40;;;9.50;99.90;;;;;;5094352;28;20550;-87
2022/02/05 11:54:08;;;;;;;5.63;1.07;;;8.70;99.90;;;;;;5094569;28;20483;-88
2022/02/05 11:56:34;;;;;;;7.00;0.90;;;9.90;99.90;;;;;;5116318;28;20407;-88
2022/02/05 11:59:00;;;;;;;6.60;0.97;;;10.00;99.90;;;;;;5098426;28;20562;-89
2022/02/05 12:01:36;;;;;;;3.73;0.40;;;11.30;99.90;;;;;;5098404;28;20174;-88
2022/02/05 12:04:13;;;;;;;6.47;0.80;;;12.90;99.90;;;;;;5098511;28;20422;-88
2022/02/05 12:06:53;;;;;;;10.07;1.07;;;13.30;97.30;;;;;;5116139;28;20442;-87
2022/02/05 12:09:39;;;;;;;5.40;0.97;;;12.90;96.00;;;;;;5098042;28;20838;-89
2022/02/05 12:12:46;;;;;;;5.40;0.90;;;12.70;96.40;;;;;;5116378;28;20501;-88
2022/02/05 12:15:15;;;;;;;6.70;1.27;;;12.90;96.20;;;;;;5097808;28;20416;-88
2022/02/05 12:20:26;;;;;;;5.20;1.00;;;12.60;98.30;;;;;;5112678;28;20543;-87
2022/02/05 12:23:28;;;;;;;8.20;0.87;;;12.70;96.60;;;;;;5116290;28;20426;-88
2022/02/05 12:25:56;;;;;;;5.90;0.93;;;11.80;98.40;;;;;;5114833;28;20426;-89
2022/02/05 12:28:32;;;;;;;12.40;2.13;;;10.20;99.90;;;;;;5116192;28;20408;-89
2022/02/05 12:31:02;;;;;;;8.70;0.83;;;9.70;99.90;;;;;;5116074;28;20427;-88
2022/02/05 12:33:43;;;;;;;7.73;1.13;;;10.30;99.90;;;;;;5114939;28;20424;-87
2022/02/05 12:36:09;;;;;;;6.53;1.30;;;10.50;99.90;;;;;;5115632;28;20412;-88
2022/02/05 12:38:42;;;;;;;6.23;1.23;;;10.50;99.90;;;;;;5114620;28;20443;-88
2022/02/05 12:41:09;;;;;;;7.03;0.90;;;9.30;99.90;;;;;;5114796;28;20424;-87
2022/02/05 12:43:51;;;;;;;6.53;1.43;;;9.00;99.90;;;;;;5114779;28;20434;-88
2022/02/05 12:46:18;;;;;;;6.13;0.80;;;8.70;99.90;;;;;;5114705;28;20419;-88
2022/02/05 12:48:48;;;;;;;8.27;0.93;;;8.40;99.90;;;;;;5114623;28;20971;-88
2022/02/05 12:51:14;;;;;;;4.57;1.50;;;8.40;99.90;;;;;;5114152;28;20432;-87
2022/02/05 12:53:40;;;;;;;13.60;1.93;;;8.20;99.90;;;;;;5115710;28;20402;-87
2022/02/05 12:56:12;;;;;;;7.77;1.83;;;8.30;99.90;;;;;;5115655;28;20219;-87
2022/02/05 12:58:55;;;;;;;3.50;0.97;;;8.20;99.90;;;;;;5115684;28;20406;-87
2022/02/05 13:01:22;;;;;;;7.20;1.07;;;8.40;99.90;;;;;;5114384;28;20948;-88
2022/02/05 13:03:47;;;;;;;6.70;1.57;;;8.20;99.90;;;;;;5115767;28;20971;-87
2022/02/05 13:06:20;;;;;;;6.60;1.20;;;8.40;99.90;;;;;;5114866;28;20408;-87
2022/02/05 13:08:48;;;;;;;8.50;1.20;;;8.30;99.90;;;;;;5115031;28;20205;-88
2022/02/05 13:11:24;;;;;;;3.93;1.07;;;8.20;99.90;;;;;;5114231;28;20459;-87
2022/02/05 13:13:53;;;;;;;3.07;0.73;;;8.50;99.90;;;;;;5113882;28;20411;-88
2022/02/05 13:16:23;;;;;;;6.77;1.27;;;8.20;99.90;;;;;;5115184;28;20493;-87
2022/02/05 13:19:07;;;;;;;5.77;1.07;;;8.40;99.90;;;;;;5114719;28;20805;-88
2022/02/05 13:27:26;;;;;;;3.37;0.90;;;8.20;99.90;;;;;;5115353;28;20908;-87
2022/02/05 13:29:57;;;;;;;7.37;2.23;;;8.00;99.90;;;;;;5113675;28;20514;-88
2022/02/05 13:35:09;;;;;;;5.67;1.37;;;7.60;99.90;;;;;;5114648;28;20475;-87
2022/02/05 13:37:48;;;;;;;5.37;1.20;;;7.60;99.90;;;;;;5114483;28;20428;-87
2022/02/05 13:40:18;;;;;;;10.67;2.37;;;7.60;99.90;;;;;;5115884;28;20403;-88
2022/02/05 13:42:48;;;;;;;3.80;0.73;;;7.40;99.90;;;;;;5113693;28;20419;-87
2022/02/05 13:45:24;;;;;;;3.07;1.47;;;7.70;99.90;;;;;;5114777;28;20412;-87
2022/02/05 13:47:51;;;;;;;12.27;1.20;;;7.80;99.90;;;;;;5113456;28;20837;-88
2022/02/05 13:50:25;;;;;;;6.97;1.00;;;8.00;99.90;;;;;;5114229;28;20481;-87
2022/02/05 13:53:00;;;;;;;5.43;2.33;;;7.80;99.90;;;;;;5113557;28;20537;-88
2022/02/05 13:55:30;;;;;;;11.60;2.23;;;7.60;99.90;;;;;;5114493;28;20547;-88
2022/02/05 13:58:00;;;;;;;6.57;1.17;;;7.60;99.90;;;;;;5113468;28;20424;-88
2022/02/05 14:00:48;;;;;;;5.97;1.20;;;7.60;99.90;;;;;;5113051;28;20420;-88
2022/02/05 14:03:34;;;;;;;3.50;2.07;;;7.90;99.90;;;;;;5113246;28;20894;-89
2022/02/05 14:06:04;;;;;;;8.23;1.97;;;8.00;99.90;;;;;;5114024;28;20400;-88
2022/02/05 14:08:50;;;;;;;4.90;1.70;;;7.80;99.90;;;;;;5113296;28;20444;-88
2022/02/05 14:11:31;;;;;;;5.40;1.57;;;7.60;99.90;;;;;;5114496;28;20465;-88
2022/02/05 14:13:59;;;;;;;5.40;1.43;;;7.50;99.90;;;;;;5114330;28;20413;-88
2022/02/05 14:16:32;;;;;;;5.40;1.27;;;7.40;99.90;;;;;;5114474;28;20442;-90
2022/02/05 14:19:01;;;;;;;11.23;1.80;;;7.50;99.90;;;;;;5113037;28;20934;-89
2022/02/05 14:21:34;;;;;;;7.50;1.77;;;7.40;99.90;;;;;;5113882;28;20443;-89
2022/02/05 14:24:01;;;;;;;7.33;1.83;;;7.30;99.90;;;;;;5114304;28;20464;-88
2022/02/05 14:26:39;;;;;;;10.30;1.93;;;7.20;99.90;;;;;;5109601;28;20434;-88
2022/02/05 14:29:07;;;;;;;4.80;1.30;;;7.50;99.90;;;;;;5094792;28;20463;-87
2022/02/05 14:31:33;;;;;;;9.17;2.27;;;7.20;99.90;;;;;;5112965;28;20435;-88
2022/02/05 14:36:48;;;;;;;6.27;1.57;;;7.10;99.90;;;;;;5110375;28;20423;-87
2022/02/05 14:42:07;;;;;;;6.17;1.80;;;7.20;99.90;;;;;;5114044;28;20430;-86
2022/02/05 14:44:39;;;;;;;8.40;1.07;;;7.10;99.90;;;;;;5112918;28;20779;-87
2022/02/05 14:47:10;;;;;;;7.93;1.47;;;7.00;99.90;;;;;;5113739;28;21140;-87
2022/02/05 14:49:36;;;;;;;8.37;1.73;;;6.90;99.90;;;;;;5113313;28;20967;-86
2022/02/05 14:52:02;;;;;;;7.00;2.07;;;6.90;99.90;;;;;;5113126;28;20423;-87
2022/02/05 14:54:33;;;;;;;3.90;0.90;;;6.80;99.90;;;;;;5112744;28;20187;-88
2022/02/05 14:56:58;;;;;;;8.23;1.77;;;6.80;99.90;;;;;;5112217;28;20176;-87
2022/02/05 14:59:24;;;;;;;7.97;1.07;;;6.90;99.90;;;;;;5113616;28;20417;-87
2022/02/05 15:01:49;;;;;;;8.63;1.77;;;6.80;99.90;;;;;;5113330;28;20725;-88
2022/02/05 15:04:15;;;;;;;6.63;1.37;;;6.60;99.90;;;;;;5113443;28;20177;-88
2022/02/05 15:06:43;;;;;;;4.70;1.93;;;6.80;99.90;;;;;;5113168;28;20226;-88
2022/02/05 15:09:09;;;;;;;12.90;2.30;;;6.70;99.90;;;;;;5113340;28;20655;-87
2022/02/05 15:11:35;;;;;;;4.47;2.10;;;6.80;99.90;;;;;;5112301;28;20421;-87
2022/02/05 15:14:02;;;;;;;1.43;0.77;;;6.80;99.90;;;;;;5112121;28;20175;-88
2022/02/05 15:16:33;;;;;;;3.50;1.33;;;6.80;99.90;;;;;;5113651;28;20653;-88
2022/02/05 15:18:59;;;;;;;3.67;0.80;;;6.80;99.90;;;;;;5113386;28;20519;-89
2022/02/05 15:21:33;;;;;;;5.67;1.57;;;6.70;99.90;;;;;;5113132;28;20415;-88
2022/02/05 15:23:59;;;;;;;3.73;0.60;;;6.70;99.90;;;;;;5112087;28;20193;-88
2022/02/05 15:26:28;;;;;;;11.10;2.03;;;6.60;99.90;;;;;;5113380;28;20402;-87
2022/02/05 15:28:55;;;;;;;5.83;1.60;;;6.60;99.90;;;;;;5111730;28;20461;-88
2022/02/05 15:31:21;;;;;;;8.50;1.80;;;6.70;99.90;;;;;;5116426;28;20440;-87
2022/02/05 15:33:54;;;;;;;3.33;0.60;;;6.60;99.90;;;;;;5117368;28;20471;-87
2022/02/05 15:39:33;;;;;;;3.03;1.10;;;6.50;99.90;;;;;;5118828;28;20445;-88
2022/02/05 15:44:36;;;;;;;4.77;1.10;;;6.50;99.90;;;;;;5129131;28;20936;-87
2022/02/05 15:47:03;;;;;;;7.77;1.77;;;6.40;99.90;;;;;;5125515;28;20425;-86
2022/02/05 15:49:28;;;;;;;3.00;0.77;;;6.40;99.90;;;;;;5126856;28;20491;-87
2022/02/05 15:51:54;;;;;;;4.60;0.93;;;6.30;99.90;;;;;;5123738;28;20417;-88
2022/02/05 15:54:23;;;;;;;4.07;1.40;;;6.30;99.90;;;;;;5115986;28;20179;-87
2022/02/05 15:56:59;;;;;;;7.67;0.90;;;6.40;99.90;;;;;;5117039;28;20630;-89
2022/02/05 15:59:43;;;;;;;5.67;1.47;;;6.40;99.90;;;;;;5117063;28;20742;-87
2022/02/05 16:02:09;;;;;;;10.60;0.67;;;6.40;99.90;;;;;;5115643;28;20953;-88
2022/02/05 16:04:34;;;;;;;3.87;0.80;;;6.40;99.90;;;;;;5115931;28;20600;-86
2022/02/05 16:07:00;;;;;;;8.20;1.73;;;6.40;99.90;;;;;;5117646;28;20169;-87